Tiempo atmosférico en la estación meteorológica de Puerto De San Isidro, León (1510 m.)



Fecha
DESCASC
Temp. máxima en grados centígrados (hora)
DESCASC
Temp. mínima en grados centígrados (hora)
DESCASC
Temp. media en grados centígrados
DESCASC
Racha de viento máxima en m/sg (hora)
DESCASC
Velocidad máxima media en intervalos de 10 minutos(hora)
DESCASC
Precipitaciones diarias en mm
DESCASC
Precipitaciones de 00:00 a 06:00 en mm
DESCASC
Precipitaciones de 06:00 a 12:00 en mm
DESCASC
Precipitaciones de 12:00 a 18:00 en mm
DESCASC
Precipitaciones de 18:00 a 24:00 en mm
DESCASC
27-01-2020 4.7 (15:00) 0.3 (03:40) 2.5 17.22 (08:50) 9.17 (15:10) 3.2 0 2.4 0.6 0.2
26-01-2020 2.6 (16:10) -6.1 (08:50) -1.8 10.28 (14:40) 6.39 (14:50) 0 0 0 0 0
25-01-2020 5.4 (15:00) -1.3 (-00:0) 2.1 5.56 (06:20) 3.33 (06:10) 0.4 0 0 0.4 0
24-01-2020 4.5 (13:30) -0.5 (-00:0) 2 10.28 (01:30) 5.56 (01:50) 1.2 0 0.2 0.4 0.6
23-01-2020 5.2 (14:20) -5.5 (-00:0) -0.2 9.17 (23:59) 5.83 (23:59) 1.4 0 0 1.4 0
22-01-2020 3.7 (11:40) -2 (-00:0) 0.9 16.39 (03:00) 7.5 (02:50) 6.4 0 1 5.4 0
21-01-2020 -1.1 (15:20) -4.8 (-00:0) -3 7.78 (06:50) 5 (19:30) 0 0 0 0 0
20-01-2020 -2.3 (14:20) -5.4 (-00:0) -3.9 20 (10:20) 8.61 (12:50) 0 0 0 0 0
19-01-2020 0.5 (04:10) -4.2 (-00:0) -1.8 20 (21:10) 8.61 (00:10) 0 0 0 0 0
18-01-2020 4.3 (15:20) -0.8 (-00:0) 1.8 17.22 (18:30) 10.28 (19:00) 3.8 0 0 3.6 0.2
17-01-2020 3.4 (00:30) -1.6 (-00:0) 0.9 12.22 (03:00) 5.56 (23:30) 0 0 0 0 0
16-01-2020 6 (02:40) 3.1 (00:00) 4.5 23.33 (14:40) 8.89 (12:20) 22 1.4 10.8 3.2 6.6
15-01-2020 5.4 (23:59) 2.3 (00:00) 3.9 21.39 (04:40) 9.72 (04:40) 8.8 2.8 6 0 0
14-01-2020 3.6 (01:20) -2.8 (-00:0) 0.4 17.5 (00:50) 11.39 (08:20) 1 0 0.2 0 0.8
13-01-2020 6.3 (14:10) -4.8 (-00:0) 0.8 15.83 (16:30) 9.44 (16:10) 0 0 0 0 0
12-01-2020 8.9 (13:20) -3.2 (-00:0) 2.8 6.67 (01:00) 5 (01:00) 0.4 0 0.2 0.2 0
11-01-2020 9.4 (14:40) -7.1 (-00:0) 1.1 6.11 (22:20) 5.56 (22:20) 0 0 0 0 0
10-01-2020 0.3 (16:00) -5.5 (-00:0) -2.6 21.94 (08:20) 12.5 (05:50) 0.2 0.2 0 0 0
09-01-2020 8 (12:50) -0.3 (00:00) 3.8 17.22 (13:40) 8.89 (23:59) 2.8 0 0 2.6 0.2
08-01-2020 12.4 (15:50) 0.7 (00:00) 6.5 5 (14:00) 3.89 (08:00) 0 0 0 0 0
07-01-2020 10.5 (14:30) -1.8 (-00:0) 4.4 5.28 (16:30) 4.17 (16:30) 0 0 0 0 0
06-01-2020 12.3 (13:00) -0.7 (-00:0) 5.8 8.61 (16:40) 5.83 (16:50) 0 0 0 0 0
05-01-2020 12.9 (15:10) -1 (-00:0) 5.9 5.56 (09:30) 3.06 (20:20) 0 0 0 0 0
04-01-2020 5.7 (14:40) -2.4 (-00:0) 1.6 6.11 (12:30) 5 (15:30) 0 0 0 0 0
03-01-2020 5.2 (11:50) -1.1 (-00:0) 2 10 (13:00) 5.83 (13:10) 2.6 0 1 1.6 0
02-01-2020 9.1 (13:00) -1 (-00:0) 4.1 9.44 (13:40) 6.39 (13:20) 0 0 0 0 0
01-01-2020 15.4 (14:10) 1.3 (00:00) 8.3 6.67 (15:40) 5.28 (15:40) 0 0 0 0 0
31-12-2019 14 (14:50) 0.9 (00:00) 7.4 7.5 (23:00) 5.28 (23:00) 0 0 0 0 0
30-12-2019 14.2 (12:30) 2 (00:00) 8.1 5.83 (15:00) 4.17 (15:00) 0 0 0 0 0

Gráficas

Temp. máximas Temp. mínimas Temp. medias Precipitaciones Rachas de viento máximas Velocidades máximas media en intervalos de 10 minutos

Datos horarios

Fecha y hora oficial Temperatura (ºC) Velocidad del viento (km/h) Dirección del viento Racha (km/h) Dirección de racha Precipitación (mm) Presión (hPa) Tendencia (hPa) Humedad (%)
2020-01-28 23:00:00 2.4 3 Sur 9 Sudeste 0 851.3 0.4 92
2020-01-28 22:00:00 2.4 4 Este 7 Este 0.2 851.1 0.4 90
2020-01-28 21:00:00 2.4 3 Sudeste 8 Este 0 851.2 0.7 89
2020-01-28 20:00:00 2.4 3 Este 14 Este 0 850.9 0.6 83
2020-01-28 19:00:00 2.7 6 Este 17 Este 0 850.7 0.6 76
2020-01-28 18:00:00 4 4 Este 20 Sudoeste 0 850.5 0.5 60
2020-01-28 17:00:00 4.9 10 Sudoeste 16 Sudoeste 0 850.3 0 48
2020-01-28 16:00:00 7.1 5 Este 16 Este 0 850.1 -0.6 60
2020-01-28 15:00:00 6.1 13 Este 20 Este 0 850 -0.8 65
2020-01-28 14:00:00 4.9 12 Este 23 Este 0 850.3 -0.3 68
2020-01-28 13:00:00 3.8 12 Este 21 Este 0.2 850.7 0.6 69
2020-01-28 12:00:00 3 5 Este 14 Sur 0 850.8 1.3 77
2020-01-28 11:00:00 0.8 5 Sudeste 12 Sur 0 850.6 1.4 87
2020-01-28 10:00:00 -0.2 6 Sudeste 19 Sudeste 0 850.1 1.4 93
2020-01-28 09:00:00 -0.3 8 Sudeste 18 Sudeste 0 849.5 1 94
2020-01-28 08:00:00 -0.2 7 Sudeste 13 Nordeste 0 849.2 1.1 93
2020-01-28 07:00:00 -0.1 6 Nordeste 14 Este 0 848.7 0.8 93
2020-01-28 06:00:00 -0.4 3 Sur 14 Nordeste 0 848.5 0.9 92
2020-01-28 05:00:00 -0.9 5 Este 15 Este 0 848.1 0.6 93
2020-01-28 04:00:00 -0.3 6 Este 17 Sur 0 847.9 0.7 89
2020-01-28 03:00:00 1.1 7 Sudeste 21 Este 0 847.6 0.4 91
2020-01-28 02:00:00 4.4 11 Sudoeste 35 Oeste 0 847.5 0.6 68
2020-01-28 01:00:00 4.7 20 Sudoeste 40 Sudoeste 0 847.2 0.2 72
2020-01-28 00:00:00 4.4 14 Sudoeste 37 Sudoeste 0 847.2 0.5 76
2020-01-27 23:00:00 4.3 17 Sudoeste 34 Sudoeste 0 846.9 0.4 76
2020-01-27 22:00:00 4.1 18 Sudoeste 46 Sudoeste 0 847 0.6 78
2020-01-27 21:00:00 4.5 20 Sudoeste 38 Sudoeste 0 846.7 0.5 75
2020-01-27 20:00:00 4.3 21 Sudoeste 50 Oeste 0 846.5 0.2 77
2020-01-27 19:00:00 4 17 Sudoeste 42 Oeste 0.2 846.4 0.3 76
2020-01-27 18:00:00 4.1 17 Sudoeste 39 Oeste 0 846.2 -0.1 76
2020-01-27 17:00:00 4.1 20 Sudoeste 49 Oeste 0 846.3 -0.7 74
2020-01-27 16:00:00 4.3 23 Oeste 58 Oeste 0 846.1 -1.4 69
2020-01-27 15:00:00 4.6 30 Sudoeste 57 Sudoeste 0.2 846.3 -1.7 59
2020-01-27 14:00:00 3.8 13 Sudoeste 47 Sur 0.2 847 -1.2 68
2020-01-27 13:00:00 3.6 8 Sudoeste 45 Sur 0.2 847.5 -0.4 78
2020-01-27 12:00:00 3.2 14 Sur 31 Sur 1 848 0.2 77
2020-01-27 11:00:00 2.8 7 Sur 31 Sudeste 0.8 848.2 0.5 80
2020-01-27 10:00:00 2.5 16 Sur 48 Sur 0.4 847.9 0 80
2020-01-27 09:00:00 2.6 19 Sur 62 Sur 0.2 847.8 -0.7 81
2020-01-27 08:00:00 2.6 28 Sur 58 Sur 0 847.7 -1.7 81
2020-01-27 07:00:00 2 18 Sur 44 Sur 0 847.9 -1.9 85
2020-01-27 06:00:00 1.3 21 Sur 36 Este 0 848.5 -1.5 89
2020-01-27 05:00:00 0.3 26 Este 41 Este 0 849.4 -1.1 93
2020-01-27 04:00:00 0.9 22 Este 52 Este 0 849.8 -1.1 93
2020-01-27 03:00:00 1 21 Este 41 Nordeste 0 850 -1 88
2020-01-27 02:00:00 1.9 16 Sur 40 Sudoeste 0 850.5 -0.4 82
2020-01-27 01:00:00 1.4 14 Sudeste 39 Este 0 850.9 -0.1 85
2020-01-27 00:00:00 1.8 10 Sudeste 35 Este 0 851 -0.1 82
2020-01-26 23:00:00 0.3 21 Este 34 Este 0 850.9 0.1 89
2020-01-26 22:00:00 -0.1 9 Nordeste 28 Este 0 851 0.3 89
2020-01-26 21:00:00 -0.1 3 Este 20 Nordeste 0 851.1 0.7 86
2020-01-26 20:00:00 0.1 5 Norte 16 Norte 0 850.8 0.6 85
2020-01-26 19:00:00 0 14 Nordeste 26 Sur 0 850.7 0.6 88
2020-01-26 18:00:00 1.3 6 Nordeste 34 Sur 0 850.4 0.1 79
2020-01-26 17:00:00 1.9 16 Sudeste 32 Sur 0 850.2 -0.4 73
2020-01-26 16:00:00 2.3 15 Sudeste 31 Este 0 850.1 -0.8 72
2020-01-26 15:00:00 1.6 20 Este 37 Este 0 850.3 -0.9 80
2020-01-26 14:00:00 2 11 Este 21 Este 0 850.6 -0.4 78
2020-01-26 13:00:00 1.3 12 Nordeste 20 Este 0 850.9 0.1 80
2020-01-26 12:00:00 -0.1 5 Este 14 Este 0 851.2 0.7 82
2020-01-26 11:00:00 0.3 5 Este 8 Este 0 851 1.3 75
2020-01-26 10:00:00 -1.9 3 Este 9 Sudeste 0 850.8 1.3 85
2020-01-26 09:00:00 -5.8 3 Oeste 6 Sudeste 0 850.5 1.5 91
2020-01-26 08:00:00 -5 4 Sudeste 6 Sudeste 0 849.7 0.8 91
2020-01-26 07:00:00 -4.7 3 Sudoeste 8 Sudeste 0 849.5 0.7 89
2020-01-26 06:00:00 -3.5 0 Calma 8 Sudeste 0 849 0.5 87
2020-01-26 05:00:00 -2.2 6 Noroeste 13 Oeste 0 848.9 0.5 86
2020-01-26 04:00:00 0.4 9 Oeste 16 Oeste 0 848.8 0.3 79
2020-01-26 03:00:00 -0.8 3 Noroeste 6 Noroeste 0 848.5 0 89
2020-01-26 02:00:00 -0.6 3 Sudeste 8 Este 0 848.4 0.2 89
2020-01-26 01:00:00 -0.3 2 Oeste 9 Oeste 0 848.5 0.2 89
2020-01-26 00:00:00 -0.9 4 Noroeste 6 Noroeste 0 848.5 0.5 89
2020-01-25 23:00:00 -0.2 3 Oeste 9 Oeste 0 848.2 0.6 91
2020-01-25 22:00:00 0 0 Calma 7 Sur 0 848.3 1.2 89
2020-01-25 21:00:00 0.5 5 Sudeste 11 Sudeste 0 848 1.5 86
2020-01-25 20:00:00 0.5 6 Noroeste 11 Noroeste 0 847.6 1.1 89
2020-01-25 19:00:00 0.2 7 Oeste 12 Oeste 0 847.1 0.8 85
2020-01-25 18:00:00 1.7 6 Noroeste 13 Noroeste 0 846.5 0 78
2020-01-25 17:00:00 2.6 8 Oeste 15 Noroeste 0 846.5 -0.4 62
2020-01-25 16:00:00 4 5 Oeste 11 Sudoeste 0 846.3 -1.2 58
2020-01-25 15:00:00 5.3 4 Sudoeste 7 Sur 0 846.5 -1.3 55
2020-01-25 14:00:00 3.5 3 Sur 8 Este 0.4 846.9 -0.8 64
2020-01-25 13:00:00 2.3 4 Sudeste 5 Sur 0 847.5 -0.2 76
2020-01-25 12:00:00 0.8 5 Sudeste 7 Sudeste 0 847.8 0.4 77
2020-01-25 11:00:00 0.1 0 Calma 6 Sudeste 0 847.7 0.5 83
2020-01-25 10:00:00 -0.7 3 Este 6 Sudeste 0 847.7 0.8 88
2020-01-25 09:00:00 -1.2 5 Este 10 Sudeste 0 847.4 0.4 89
2020-01-25 08:00:00 -0.6 5 Este 18 Este 0 847.2 0.1 92
2020-01-25 07:00:00 0 9 Este 20 Sudeste 0 846.9 -0.6 93
2020-01-25 06:00:00 0 9 Este 18 Sudeste 0 847 -0.7 94
2020-01-25 05:00:00 0.1 6 Este 11 Este 0 847.1 -1 93
2020-01-25 04:00:00 0 3 Este 11 Este 0 847.5 -0.9 92
2020-01-25 03:00:00 0.3 4 Sudeste 6 Sudoeste 0 847.7 -0.8 89
2020-01-25 02:00:00 0.2 2 Sudeste 7 Sudeste 0 848.1 -0.7 94
2020-01-25 01:00:00 0 3 Sur 7 Sudeste 0 848.4 -0.7 94
2020-01-25 00:00:00 -0.3 4 Este 12 Sur 0 848.5 -0.6 94
2020-01-24 23:00:00 0.1 4 Sudeste 11 Sudeste 0 848.8 -0.2 94
2020-01-24 22:00:00 0.5 3 Este 7 Este 0.2 849.1 0.3 94
2020-01-24 21:00:00 0.4 3 Este 11 Este 0 849.1 0.5 94
2020-01-24 20:00:00 0.6 8 Este 12 Este 0.2 849 0.4 93
2020-01-24 19:00:00 0.7 8 Este 14 Este 0.2 848.8 0.1 92
2020-01-24 18:00:00 1.5 8 Este 12 Este 0 848.6 -0.3 90
2020-01-24 17:00:00 2.3 9 Este 12 Este 0 848.6 -0.5 86
2020-01-24 16:00:00 2.8 11 Este 23 Sudeste 0 848.7 -1.1 83
2020-01-24 15:00:00 3.1 10 Este 22 Este 0.4 848.9 -1.2 82
2020-01-24 14:00:00 3.8 17 Este 28 Este 0 849.1 -0.8 78
2020-01-24 13:00:00 3.3 13 Este 19 Este 0 849.8 0.3 82
2020-01-24 12:00:00 3 14 Este 24 Este 0.2 850.1 0.7 82
2020-01-24 11:00:00 1.9 17 Este 26 Este 0 849.9 0.8 88
2020-01-24 10:00:00 0.9 15 Este 23 Nordeste 0 849.5 0.5 93
2020-01-24 09:00:00 0.5 10 Este 21 Este 0 849.4 0.5 93
2020-01-24 08:00:00 0.3 12 Este 24 Este 0 849.1 0.4 92
2020-01-24 07:00:00 0.5 7 Este 18 Este 0 849 0.2 93
2020-01-24 06:00:00 0.5 9 Este 21 Este 0 848.9 -0.2 91
2020-01-24 05:00:00 0.6 15 Este 36 Este 0 848.7 -0.3 89
2020-01-24 04:00:00 1 12 Este 26 Este 0 848.8 -0.3 83
2020-01-24 03:00:00 1.2 14 Este 34 Sur 0 849.1 0 81
2020-01-24 02:00:00 1.7 17 Sur 37 Sur 0 849 -0.1 79
2020-01-24 01:00:00 1.9 15 Sur 33 Sudoeste 0 849.1 0.2 77
2020-01-24 00:00:00 2.1 21 Sur 33 Sur 0 849.1 0.5 74
2020-01-23 23:00:00 1.7 12 Sur 22 Sur 0 849.1 0.6 71
2020-01-23 22:00:00 0.4 10 Este 23 Este 0 848.9 0.9 78
2020-01-23 21:00:00 0 5 Sudeste 12 Este 0 848.6 1 80
2020-01-23 20:00:00 -0.5 3 Sudeste 4 Sur 0 848.5 1.2 81
2020-01-23 19:00:00 0.2 3 Oeste 7 Sudeste 0 848 0.8 78
2020-01-23 18:00:00 2.2 6 Sudeste 12 Sudoeste 0 847.6 -0.2 71
2020-01-23 17:00:00 3.1 2 Norte 15 Este 0.2 847.3 -1.1 66
2020-01-23 16:00:00 4.2 6 Este 17 Este 0.2 847.2 -1.5 62
2020-01-23 15:00:00 4.7 3 Noroeste 22 Este 0.4 847.8 -1.2 64
2020-01-23 14:00:00 4.6 6 Este 27 Este 0.6 848.4 -0.7 68
2020-01-23 13:00:00 4.2 8 Este 24 Este 0 848.7 -0.1 65
2020-01-23 12:00:00 1.8 15 Este 21 Este 0 849 0.5 77
2020-01-23 11:00:00 -0.6 6 Este 13 Este 0 849.1 0.8 81
2020-01-23 10:00:00 -2.7 5 Este 9 Sur 0 848.8 0.9 86
2020-01-23 09:00:00 -4.3 5 Sudeste 10 Este 0 848.5 0.4 91
2020-01-23 08:00:00 -4.8 3 Este 10 Sur 0 848.3 0.1 89
2020-01-23 07:00:00 -5.2 3 Nordeste 11 Sudeste 0 847.9 -0.8 85
2020-01-23 06:00:00 -3.4 4 Sudeste 9 Sudeste 0 848.1 -0.8 90
2020-01-23 05:00:00 -2.3 5 Este 19 Sudeste 0 848.2 -0.5 90
2020-01-23 04:00:00 -1.1 9 Sudeste 18 Este 0 848.7 -0.4 92
2020-01-23 03:00:00 -2.4 5 Este 17 Este 0 848.9 -0.1 93
2020-01-23 02:00:00 -2.5 12 Este 18 Este 0 848.7 -0.4 93
2020-01-23 01:00:00 -2.3 11 Este 21 Este 0 849.1 0 94
2020-01-23 00:00:00 -1.9 5 Sudeste 14 Este 0 849 -0.1 94
2020-01-22 23:00:00 -1.9 5 Este 15 Norte 0 849.1 0.2 95
2020-01-22 22:00:00 -1 6 Este 10 Este 0 849.1 0.2 95
2020-01-22 21:00:00 -0.3 5 Nordeste 8 Nordeste 0 849.1 0.1 95
2020-01-22 20:00:00 -0.1 4 Noroeste 9 Oeste 0 848.9 -0.3 95
2020-01-22 19:00:00 -0.1 7 Oeste 21 Oeste 0 848.9 -0.8 95
2020-01-22 18:00:00 0 11 Oeste 17 Oeste 0.2 849 -1.5 95
2020-01-22 17:00:00 0.3 12 Oeste 18 Oeste 0.2 849.2 -1.9 94
2020-01-22 16:00:00 0.6 12 Oeste 15 Oeste 0.4 849.7 -2.1 94
2020-01-22 15:00:00 0.9 11 Oeste 17 Oeste 1 850.5 -1.6 93
2020-01-22 14:00:00 0.8 12 Oeste 15 Oeste 0.8 851.1 -0.9 92
2020-01-22 13:00:00 1.1 11 Oeste 15 Oeste 2.8 851.8 -0.1 91
2020-01-22 12:00:00 1.8 3 Sur 9 Oeste 1 852.1 0.3 86
2020-01-22 11:00:00 0.9 3 Oeste 21 Oeste 0 852 0.2 92
2020-01-22 10:00:00 1 9 Noroeste 23 Noroeste 0 851.9 0 89
2020-01-22 09:00:00 0.2 9 Oeste 18 Noroeste 0 851.8 -0.3 93
2020-01-22 08:00:00 0.8 5 Noroeste 26 Este 0 851.8 -0.7 89
2020-01-22 07:00:00 0.9 5 Noroeste 26 Norte 0 851.9 -1.1 88
2020-01-22 06:00:00 0.9 10 Nordeste 35 Nordeste 0 852.1 -1.4 89
2020-01-22 05:00:00 0.9 13 Nordeste 37 Nordeste 0 852.5 -1.7 87
2020-01-22 04:00:00 0.9 12 Nordeste 36 Norte 0 853 -1.5 87
2020-01-22 03:00:00 -0.2 24 Noroeste 59 Noroeste 0 853.5 -1.2 90
2020-01-22 02:00:00 0.2 11 Nordeste 37 Norte 0 854.2 -0.6 90
2020-01-22 01:00:00 -0.2 10 Nordeste 30 Nordeste 0 854.5 -0.3 89
2020-01-22 00:00:00 -1.2 7 Oeste 25 Oeste 0 854.7 0.4 91
2020-01-21 23:00:00 -3.1 13 Oeste 20 Oeste 0 854.8 0 93
2020-01-21 22:00:00 -3.4 8 Oeste 17 Oeste 0 854.8 0.5 93
2020-01-21 21:00:00 -2.8 14 Oeste 23 Noroeste 0 854.3 0 94
2020-01-21 20:00:00 -2.6 3 Nordeste 24 Oeste 0 854.8 0.5 94
2020-01-21 19:00:00 -2.6 14 Oeste 19 Oeste 0 854.3 0.1 94
2020-01-21 18:00:00 -2.3 11 Oeste 24 Noroeste 0 854.3 -0.5 92
2020-01-21 17:00:00 -1.9 11 Oeste 25 Oeste 0 854.3 -1 89
2020-01-21 16:00:00 -1.8 13 Noroeste 19 Noroeste 0 854.2 -1.6 90
2020-01-21 15:00:00 -1.5 11 Noroeste 23 Noroeste 0 854.8 -1.6 86
2020-01-21 14:00:00 -1.6 10 Noroeste 19 Noroeste 0 855.3 -1.3 86
2020-01-21 13:00:00 -2.8 14 Noroeste 22 Noroeste 0 855.8 -0.9 91
2020-01-21 12:00:00 -2.7 8 Norte 16 Noroeste 0 856.4 -0.2 89
2020-01-21 11:00:00 -2.3 4 Sudeste 17 Noroeste 0 856.6 0 86
2020-01-21 10:00:00 -3.4 7 Noroeste 21 Oeste 0 856.7 -0.1 90
2020-01-21 09:00:00 -3.9 7 Noroeste 24 Oeste 0 856.6 -0.3 92
2020-01-21 08:00:00 -3.9 10 Oeste 23 Noroeste 0 856.6 -0.4 92
2020-01-21 07:00:00 -3.9 15 Oeste 28 Oeste 0 856.8 -0.6 93
2020-01-21 06:00:00 -3.9 7 Oeste 15 Oeste 0 856.9 -0.9 93
2020-01-21 05:00:00 -3.6 5 Oeste 18 Norte 0 857 -0.9 91
2020-01-21 04:00:00 -3.7 3 Noroeste 13 Norte 0 857.4 -0.9 92
2020-01-21 03:00:00 -3.9 5 Noroeste 11 Noroeste 0 857.8 -0.7 92
2020-01-21 02:00:00 -4.4 7 Noroeste 17 Oeste 0 857.9 -0.8 93
2020-01-21 01:00:00 -4.6 10 Oeste 23 Noroeste 0 858.3 -0.4 92
2020-01-21 00:00:00 -4.8 12 Noroeste 19 Oeste 0 858.5 -0.1 93
2020-01-20 23:00:00 -4.8 8 Noroeste 20 Oeste 0 858.7 0.1 91
2020-01-20 22:00:00 -5.1 13 Noroeste 30 Noroeste 0 858.7 0.7 92
2020-01-20 21:00:00 -4.8 12 Norte 30 Noroeste 0 858.6 0.7 88
2020-01-20 20:00:00 -4.9 11 Noroeste 26 Noroeste 0 858.6 0.8 90
2020-01-20 19:00:00 -5.2 19 Noroeste 29 Noroeste 0 858 0.1 87
2020-01-20 18:00:00 -4.9 13 Noroeste 25 Norte 0 857.9 0 85
2020-01-20 17:00:00 -4.7 12 Noroeste 28 Noroeste 0 857.8 -0.8 79
2020-01-20 16:00:00 -3.9 10 Noroeste 30 Noroeste 0 857.9 -0.5 78
2020-01-20 15:00:00 -3.6 15 Noroeste 33 Norte 0 857.9 -1.6 73
2020-01-20 14:00:00 -3.4 14 Norte 64 Nordeste 0 858.6 -1.4 70
2020-01-20 13:00:00 -3.6 30 Nordeste 64 Nordeste 0 858.4 -0.7 69
2020-01-20 12:00:00 -3.8 21 Nordeste 64 Este 0 859.5 0.6 70
2020-01-20 11:00:00 -4 26 Nordeste 72 Nordeste 0 860 1.6 63
2020-01-20 10:00:00 -4.6 22 Nordeste 54 Este 0 859.1 0.6 73
2020-01-20 09:00:00 -4.9 22 Nordeste 68 Nordeste 0 858.9 0.4 79
2020-01-20 08:00:00 -4.8 19 Nordeste 53 Este 0 858.4 -0.5 84
2020-01-20 07:00:00 -4.9 30 Nordeste 60 Nordeste 0 858.5 -0.8 82
2020-01-20 06:00:00 -4.6 18 Nordeste 46 Nordeste 0 858.5 -1.2 88
2020-01-20 05:00:00 -4.4 19 Nordeste 50 Norte 0 858.9 -1.7 82
2020-01-20 04:00:00 -4.1 18 Nordeste 47 Nordeste 0 859.3 -1.4 86
2020-01-20 03:00:00 -4.3 17 Nordeste 47 Nordeste 0 859.7 -1.5 83
2020-01-20 02:00:00 -4.5 23 Nordeste 48 Nordeste 0 860.6 -0.2 83
2020-01-20 01:00:00 -4.2 22 Nordeste 48 Nordeste 0 860.7 -0.3 82
2020-01-20 00:00:00 -4.2 18 Nordeste 53 Norte 0 861.2 0 78
2020-01-19 23:00:00 -4 14 Norte 44 Nordeste 0 860.8 0 85
2020-01-19 22:00:00 -3.8 15 Norte 72 Este 0 861 0.2 78
2020-01-19 21:00:00 -3.7 17 Norte 55 Nordeste 0 861.2 0.4 79
2020-01-19 20:00:00 -3.6 18 Norte 53 Este 0 860.8 0.2 83
2020-01-19 19:00:00 -4 14 Nordeste 46 Nordeste 0 860.8 0.1 77
2020-01-19 18:00:00 -4 14 Nordeste 37 Noroeste 0 860.8 -0.1 74
2020-01-19 17:00:00 -3.3 19 Nordeste 42 Norte 0 860.6 -0.6 74
2020-01-19 16:00:00 -2.6 14 Norte 46 Noroeste 0 860.7 -0.8 79
2020-01-19 15:00:00 -2.6 19 Noroeste 49 Noroeste 0 860.9 -0.6 85
2020-01-19 14:00:00 -2.5 21 Noroeste 39 Noroeste 0 861.2 0.5 79
2020-01-19 13:00:00 -1.6 16 Noroeste 35 Noroeste 0 861.5 1.5 88
2020-01-19 12:00:00 -2.3 18 Noroeste 42 Noroeste 0 861.5 3 89
2020-01-19 11:00:00 -2.4 15 Noroeste 54 Noroeste 0 860.7 3.9 91
2020-01-19 10:00:00 -2.3 22 Noroeste 42 Noroeste 0 860 4 90
2020-01-19 09:00:00 -1.6 14 Nordeste 48 Noroeste 0 858.5 3.4 92
2020-01-19 08:00:00 -1.4 13 Noroeste 36 Norte 0 856.8 2.7 93
2020-01-19 07:00:00 -1.2 9 Norte 40 Norte 0 856 2.6 93
2020-01-19 06:00:00 -0.4 18 Noroeste 44 Noroeste 0 855.1 2.5 93
2020-01-19 05:00:00 0.2 19 Noroeste 54 Noroeste 0 854.1 2.1 94
2020-01-19 04:00:00 0.3 20 Noroeste 55 Noroeste 0 853.4 1.8 94
2020-01-19 03:00:00 0 29 Noroeste 53 Noroeste 0 852.6 2 94
2020-01-19 02:00:00 0.1 16 Noroeste 41 Oeste 0 852 1.8 94
2020-01-19 01:00:00 0.1 17 Noroeste 45 Oeste 0 851.6 1.8 94
2020-01-19 00:00:00 0.2 25 Oeste 57 Oeste 0 850.6 1.3 93
2020-01-18 23:00:00 0.1 29 Oeste 53 Oeste 0 850.2 1.4 93
2020-01-18 22:00:00 0.1 31 Oeste 52 Oeste 0 849.8 1.4 92
2020-01-18 21:00:00 0.1 29 Oeste 52 Noroeste 0 849.3 0.8 92
2020-01-18 20:00:00 0.2 34 Oeste 56 Oeste 0 848.8 0.6 90
2020-01-18 19:00:00 0.1 37 Oeste 62 Oeste 0.2 848.4 0 89
2020-01-18 18:00:00 0.8 17 Noroeste 48 Oeste 1.6 848.5 0.7 91
2020-01-18 17:00:00 1.1 27 Oeste 51 Noroeste 0.4 848.2 -0.9 89
2020-01-18 16:00:00 1.1 15 Noroeste 42 Oeste 1 848.4 -1.9 88
2020-01-18 15:00:00 3.7 19 Sudoeste 33 Oeste 0.6 847.8 -3.8 75
2020-01-18 14:00:00 3.4 14 Sudoeste 46 Sudoeste 0 849.1 -3.3 80
2020-01-18 13:00:00 2.5 24 Sur 50 Sur 0 850.3 -2.7 82
2020-01-18 12:00:00 2.9 9 Sur 53 Sur 0 851.6 -1.9 81
2020-01-18 11:00:00 2.2 12 Sudoeste 53 Sur 0 852.4 -1.7 82
2020-01-18 10:00:00 1.7 18 Sur 52 Sur 0 853 -1.1 79
2020-01-18 09:00:00 1.2 18 Sur 46 Sudeste 0 853.5 -1.6 78
2020-01-18 08:00:00 0.9 20 Sudeste 55 Sur 0 854.1 -1.4 75
2020-01-18 07:00:00 1 15 Sudeste 54 Sudeste 0 854.1 -1.5 71
2020-01-18 06:00:00 0.2 22 Este 54 Sudeste 0 855.1 -1.4 79
2020-01-18 05:00:00 2.3 18 Sudoeste 44 Sur 0 855.5 -1.8 48
2020-01-18 04:00:00 -0.4 21 Nordeste 35 Este 0 855.6 -2.2 78
2020-01-18 03:00:00 0.7 8 Sudeste 36 Sur 0 856.5 -1.9 63
2020-01-18 02:00:00 -0.7 6 Este 13 Este 0 857.3 -1.1 79
2020-01-18 01:00:00 -0.6 10 Este 23 Este 0 857.8 -1 78
2020-01-18 00:00:00 -0.5 15 Este 29 Este 0 858.4 -0.7 74
2020-01-17 23:00:00 -0.9 9 Este 24 Este 0 858.4 -0.7 82
2020-01-17 22:00:00 -0.7 15 Este 25 Este 0 858.8 0 79
2020-01-17 21:00:00 -1.2 9 Este 17 Este 0 859.1 0.5 80
2020-01-17 20:00:00 -1.2 2 Este 10 Este 0 859.1 0.8 77
2020-01-17 19:00:00 -1.4 4 Noroeste 9 Sudoeste 0 858.8 0.8 75
2020-01-17 18:00:00 0.1 8 Sudoeste 14 Oeste 0 858.6 1.2 63
2020-01-17 17:00:00 0.8 10 Oeste 22 Oeste 0 858.3 0.9 63
2020-01-17 16:00:00 1.3 14 Oeste 21 Oeste 0 858 0.7 59
2020-01-17 15:00:00 2 15 Oeste 24 Oeste 0 857.4 0 58
2020-01-17 14:00:00 1.7 14 Oeste 25 Oeste 0 857.4 0.9 66
2020-01-17 13:00:00 0.7 19 Oeste 29 Oeste 0 857.3 1.6 72
2020-01-17 12:00:00 0.1 19 Oeste 27 Oeste 0 857.4 2.5 80
2020-01-17 11:00:00 0.4 15 Oeste 32 Oeste 0 856.5 2.2 81
2020-01-17 10:00:00 0.7 9 Oeste 23 Oeste 0 855.7 2.1 82
2020-01-17 09:00:00 0.2 5 Oeste 19 Oeste 0 854.9 2.3 87
2020-01-17 08:00:00 0.2 6 Oeste 21 Oeste 0 854.3 2.1 89
2020-01-17 07:00:00 0.9 14 Oeste 31 Oeste 0 853.6 1.4 84
2020-01-17 06:00:00 1.9 15 Oeste 32 Oeste 0 852.6 0.8 68
2020-01-17 05:00:00 2.2 12 Oeste 30 Oeste 0 852.2 0.6 71
2020-01-17 04:00:00 2.4 14 Oeste 35 Noroeste 0 852.2 0.5 71
2020-01-17 03:00:00 2.9 18 Oeste 44 Oeste 0 851.8 0.7 70
2020-01-17 02:00:00 3 13 Oeste 32 Oeste 0 851.6 0.7 71
2020-01-17 01:00:00 3 10 Oeste 36 Sur 0 851.7 1.5 74
2020-01-17 00:00:00 3.3 12 Oeste 40 Noroeste 0 851.1 0.8 73
2020-01-16 23:00:00 3.5 16 Sudoeste 49 Sur 0 850.9 0.8 73
2020-01-16 22:00:00 3.6 24 Sur 52 Sudeste 1.2 850.2 0.5 77
2020-01-16 21:00:00 3.4 17 Sur 55 Sur 1.8 850.3 1.2 79
2020-01-16 20:00:00 3.5 21 Sur 59 Sur 1.4 850.1 1.1 80
2020-01-16 19:00:00 3.6 25 Sur 63 Sur 2.2 849.7 0.8 79
2020-01-16 18:00:00 3.9 20 Sudeste 65 Sudoeste 1.2 849.1 -0.2 80
2020-01-16 17:00:00 4.1 19 Sur 76 Sudeste 0 849 -1.1 80
2020-01-16 16:00:00 4.3 21 Sur 75 Sur 0 848.9 -2.2 79
2020-01-16 15:00:00 4.9 26 Sur 84 Sur 0 849.3 -2.6 75
2020-01-16 14:00:00 4.6 27 Sur 61 Sur 0.4 850.1 -2 81
2020-01-16 13:00:00 4.7 27 Sur 70 Sudoeste 1.6 851.1 -0.6 82
2020-01-16 12:00:00 4.6 30 Sur 78 Sur 2.4 851.9 0.7 88
2020-01-16 11:00:00 5.1 29 Sur 71 Sur 2 852.1 0.4 83
2020-01-16 10:00:00 5.1 18 Sur 68 Sur 1.2 851.7 0.4 82
2020-01-16 09:00:00 5.4 27 Sur 64 Sur 2.2 851.2 -0.6 80
2020-01-16 08:00:00 5.3 24 Sur 67 Sur 2.4 851.7 -0.5 84
2020-01-16 07:00:00 5.5 23 Sur 62 Sur 0.6 851.3 -1.2 81
2020-01-16 06:00:00 5.6 21 Sur 60 Sur 0.4 851.8 -0.8 79
2020-01-16 05:00:00 5.6 21 Sur 61 Sudoeste 0 852.2 -0.2 73
2020-01-16 04:00:00 5.5 21 Sur 57 Sudoeste 0 852.5 -0.6 74
2020-01-16 03:00:00 5.8 25 Sur 61 Sur 0.2 852.6 -0.9 79
2020-01-16 02:00:00 5.9 25 Sur 57 Sur 0.6 852.4 -0.7 80
2020-01-16 01:00:00 4.6 12 Este 46 Sur 0.2 853.1 0.1 87
2020-01-16 00:00:00 5.3 22 Sur 61 Sur 0 853.5 0.5 83
2020-01-15 23:00:00 5 21 Sudoeste 50 Sur 0 853.1 0 77
2020-01-15 22:00:00 3.8 15 Sudeste 53 Sur 0 853 0.6 73
2020-01-15 21:00:00 3.6 13 Este 38 Sur 0 853 1 74
2020-01-15 20:00:00 3.9 15 Sudeste 42 Sur 0 853.1 1.6 70
2020-01-15 19:00:00 3.3 10 Este 39 Sur 0 852.4 1.4 80
2020-01-15 18:00:00 4 21 Sur 48 Sur 0 852 1.9 71
2020-01-15 17:00:00 4.1 12 Sudeste 39 Sudeste 0 851.5 1.3 73
2020-01-15 16:00:00 4.4 15 Sudeste 40 Sur 0 851 0.6 71
2020-01-15 15:00:00 5 16 Sur 41 Sur 0 850.1 0 68
2020-01-15 14:00:00 4.8 18 Sudoeste 39 Sudoeste 0 850.2 1.6 68
2020-01-15 13:00:00 4.2 13 Sur 33 Este 0 850.4 2 82
2020-01-15 12:00:00 3.3 20 Este 33 Este 0 850.1 2.9 89
2020-01-15 11:00:00 2.7 22 Este 35 Este 1.6 848.6 2 88
2020-01-15 10:00:00 3.3 14 Sudeste 35 Sudeste 1.4 848.4 3.1 84
2020-01-15 09:00:00 3.3 12 Sudeste 42 Sur 1.2 847.2 2.3 86
2020-01-15 08:00:00 3.2 19 Sur 51 Sur 1.2 846.6 2.3 90
2020-01-15 07:00:00 3.4 21 Sur 65 Sur 0.6 845.3 0.7 88
2020-01-15 06:00:00 3.3 24 Sur 69 Sur 1.2 844.9 -0.2 88
2020-01-15 05:00:00 3.1 31 Sur 77 Sudeste 0.2 844.3 -1.2 88
2020-01-15 04:00:00 2.9 27 Sur 72 Sur 0.2 844.6 -1.1 88
2020-01-15 03:00:00 2.8 19 Sur 59 Sudeste 0.6 845.1 -1 88
2020-01-15 02:00:00 2.5 24 Sur 66 Sur 0.4 845.5 -0.7 90
2020-01-15 01:00:00 2.4 19 Sur 59 Sur 0.2 845.7 -0.8 87
2020-01-15 00:00:00 2.4 21 Sur 63 Sudoeste 0.4 846.1 -0.7 84
2020-01-14 23:00:00 1.8 21 Sudeste 52 Sur 0.4 846.2 -0.7 89
2020-01-14 22:00:00 2 21 Sudeste 55 Sur 0 846.5 -0.3 84
2020-01-14 21:00:00 1.7 25 Sur 57 Sudoeste 0 846.8 0.5 89
2020-01-14 20:00:00 2.2 29 Sur 62 Sudoeste 0 846.9 0.4 85
2020-01-14 19:00:00 2.2 24 Sur 60 Sur 0 846.8 0.1 83
2020-01-14 18:00:00 2 25 Sur 60 Sur 0 846.3 -0.3 83
2020-01-14 17:00:00 1.4 25 Sur 57 Sudoeste 0 846.5 -0.6 88
2020-01-14 16:00:00 1.1 28 Sur 59 Sur 0 846.7 -0.8 87
2020-01-14 15:00:00 0.9 23 Sur 56 Sur 0 846.6 -1.2 87
2020-01-14 14:00:00 0.3 19 Sur 51 Sudoeste 0 847.1 -0.7 89
2020-01-14 13:00:00 0.1 20 Sur 49 Sudeste 0 847.5 0.4 89
2020-01-14 12:00:00 0.5 33 Sur 55 Sur 0.2 847.8 0.5 86
2020-01-14 11:00:00 0.6 28 Sudeste 62 Sudeste 0 847.8 0.2 87
2020-01-14 10:00:00 -0.8 34 Este 63 Este 0 847.1 -0.2 95
2020-01-14 09:00:00 -1.2 36 Este 58 Este 0 847.3 -0.5 95
2020-01-14 08:00:00 -1.5 35 Este 50 Este 0 847.6 0 95
2020-01-14 07:00:00 -1.5 32 Este 47 Este 0 847.3 -0.5 94
2020-01-14 06:00:00 -0.2 31 Este 51 Este 0 847.8 -0.1 93
2020-01-14 05:00:00 -0.8 30 Este 58 Este 0 847.6 -0.3 90
2020-01-14 04:00:00 3.3 10 Sudeste 49 Sur 0 847.8 -0.5 67
2020-01-14 03:00:00 1.5 9 Nordeste 39 Sur 0 847.9 -1.3 75
2020-01-14 02:00:00 3.2 11 Sur 54 Oeste 0 847.9 -1.1 63
2020-01-14 01:00:00 -1.3 23 Este 63 Nordeste 0 848.3 -1 89
2020-01-14 00:00:00 -2.8 14 Este 49 Este 0 849.2 -0.6 93
2020-01-13 23:00:00 -3.1 27 Nordeste 43 Nordeste 0 849 -1 91
2020-01-13 22:00:00 -1.7 14 Sudeste 35 Sudeste 0 849.3 0.2 80
2020-01-13 21:00:00 -3.3 11 Este 22 Este 0 849.8 0.7 85
2020-01-13 20:00:00 -2.2 14 Este 37 Este 0 850 0.7 78
2020-01-13 19:00:00 -0.7 21 Este 45 Este 0 849.1 -0.1 68
2020-01-13 18:00:00 0.6 26 Este 52 Este 0 849.1 -0.8 58
2020-01-13 17:00:00 1.6 20 Este 57 Sudeste 0 849.3 -1.3 51
2020-01-13 16:00:00 2.4 31 Este 55 Este 0 849.2 -2.3 47
2020-01-13 15:00:00 3.7 26 Este 43 Este 0 849.9 -2.6 33
2020-01-13 14:00:00 6.2 17 Sudeste 48 Este 0 850.6 -2.7 28
2020-01-13 13:00:00 2.9 31 Este 45 Este 0 851.5 -1.5 44
2020-01-13 12:00:00 2.4 24 Este 31 Este 0 852.5 0.1 44
2020-01-13 11:00:00 0.6 8 Este 18 Nordeste 0 853.3 0.3 49
2020-01-13 10:00:00 0.1 9 Nordeste 31 Este 0 853 -0.6 51
2020-01-13 09:00:00 -0.6 24 Este 32 Este 0 852.4 -1.4 57
2020-01-13 08:00:00 -2.1 4 Este 13 Sudeste 0 853 -1.5 59
2020-01-13 07:00:00 -3.1 2 Sur 13 Sur 0 853.6 -1.4 62
2020-01-13 06:00:00 -3.8 4 Este 9 Sur 0 853.8 -1.9 66
2020-01-13 05:00:00 -3.4 4 Sudeste 10 Sur 0 854.5 -1.8 64
2020-01-13 04:00:00 -3.6 3 Sudeste 6 Sudeste 0 855 -2.2 67
2020-01-13 03:00:00 -4 0 Calma 8 Sur 0 855.7 -1.9 74
2020-01-13 02:00:00 -3.6 0 Calma 6 Oeste 0 856.3 -1.4 75
2020-01-13 01:00:00 -3.1 2 Noroeste 6 Noroeste 0 857.2 -0.7 75
2020-01-13 00:00:00 -3.1 2 Sur 5 Sudeste 0 857.6 -0.8 74
2020-01-12 23:00:00 -2.3 3 Noroeste 10 Sur 0 857.7 -0.8 71
2020-01-12 22:00:00 -1.8 2 Sur 7 Sudeste 0 857.9 -0.7 66
2020-01-12 21:00:00 -1.2 2 Sudoeste 9 Sudeste 0 858.4 -0.2 61
2020-01-12 20:00:00 -1.2 0 Calma 5 Sur 0 858.5 -0.1 59
2020-01-12 19:00:00 -0.9 2 Oeste 9 Noroeste 0 858.6 -0.1 53
2020-01-12 18:00:00 1.2 3 Sudoeste 11 Noroeste 0 858.6 -0.1 42
2020-01-12 17:00:00 3.7 4 Sudoeste 15 Oeste 0 858.6 -0.4 34
2020-01-12 16:00:00 4.6 13 Oeste 17 Oeste 0 858.7 -1.1 32
2020-01-12 15:00:00 6.4 15 Oeste 18 Oeste 0 858.7 -1.8 31
2020-01-12 14:00:00 6.8 11 Oeste 13 Oeste 0 859 -1.4 28
2020-01-12 13:00:00 8.7 2 Sudoeste 11 Oeste 0.2 859.8 -0.4 18
2020-01-12 12:00:00 5.2 9 Oeste 17 Oeste 0.2 860.5 0.5 25
2020-01-12 11:00:00 3 13 Oeste 22 Oeste 0 860.4 0.6 33
2020-01-12 10:00:00 2.4 16 Oeste 22 Oeste 0 860.2 0.8 27
2020-01-12 09:00:00 -0.1 15 Oeste 20 Oeste 0 860 0.9 32
2020-01-12 08:00:00 -0.6 11 Noroeste 24 Oeste 0 859.8 0.4 35
2020-01-12 07:00:00 -0.9 13 Oeste 19 Oeste 0 859.4 -0.3 30
2020-01-12 06:00:00 0.7 4 Oeste 16 Noroeste 0 859.1 -0.4 24
2020-01-12 05:00:00 1 11 Oeste 21 Oeste 0 859.4 0 29
2020-01-12 04:00:00 3.8 17 Oeste 23 Oeste 0 859.7 0.2 24
2020-01-12 03:00:00 1.8 12 Oeste 22 Oeste 0 859.5 -0.2 31
2020-01-12 02:00:00 4.5 15 Noroeste 23 Oeste 0 859.4 -0.5 16
2020-01-12 01:00:00 2.7 18 Oeste 24 Oeste 0 859.5 -0.2 20
2020-01-12 00:00:00 1 10 Noroeste 13 Oeste 0 859.7 0 30
2020-01-11 23:00:00 0.6 13 Oeste 22 Oeste 0 859.9 0.1 31
2020-01-11 22:00:00 2.7 19 Oeste 22 Oeste 0 859.7 0.1 23
2020-01-11 21:00:00 0.5 6 Oeste 9 Oeste 0 859.7 0.3 31
2020-01-11 20:00:00 1 5 Oeste 8 Oeste 0 859.8 0.5 35
2020-01-11 19:00:00 3.3 2 Sudoeste 15 Oeste 0 859.6 0.6 24
2020-01-11 18:00:00 1.6 6 Oeste 8 Oeste 0 859.4 0.4 41
2020-01-11 17:00:00 4.7 4 Este 10 Oeste 0 859.3 -0.2 32
2020-01-11 16:00:00 6.4 10 Oeste 14 Oeste 0 859 -1.2 22
2020-01-11 15:00:00 7.4 12 Oeste 15 Oeste 0 859 -1.8 22
2020-01-11 14:00:00 8.6 5 Este 11 Este 0 859.5 -1.2 31
2020-01-11 13:00:00 6.7 11 Oeste 19 Oeste 0 860.2 -0.1 18
2020-01-11 12:00:00 4 14 Oeste 18 Oeste 0 860.8 0.7 27
2020-01-11 11:00:00 2.9 11 Oeste 18 Oeste 0 860.7 0.6 21
2020-01-11 10:00:00 -0.1 7 Oeste 11 Noroeste 0 860.3 0.2 40
2020-01-11 09:00:00 -3.8 8 Noroeste 13 Noroeste 0 860.1 -0.1 61
2020-01-11 08:00:00 -4.4 6 Noroeste 11 Noroeste 0 860.1 -0.1 72
2020-01-11 07:00:00 -6 4 Oeste 7 Noroeste 0 860.1 -0.3 79
2020-01-11 06:00:00 -6.9 4 Oeste 8 Oeste 0 860.2 -0.2 84
2020-01-11 05:00:00 -6.9 4 Oeste 7 Este 0 860.2 -0.4 86
2020-01-11 04:00:00 -6.6 2 Sudoeste 8 Noroeste 0 860.4 -0.5 87
2020-01-11 03:00:00 -6.5 4 Noroeste 7 Noroeste 0 860.4 -0.7 90
2020-01-11 02:00:00 -6.3 2 Oeste 4 Sur 0 860.6 -0.3 91
2020-01-11 01:00:00 -5.5 2 Norte 7 Sudeste 0 860.9 0 90
2020-01-11 00:00:00 -5.5 3 Sudeste 6 Sudeste 0 861.1 0.4 89
2020-01-10 23:00:00 -4.7 0 Calma 10 Sur 0 860.9 0.3 91
2020-01-10 22:00:00 -3.7 4 Sudoeste 9 Sur 0 860.9 0.7 90
2020-01-10 21:00:00 -3.6 2 Sudeste 6 Sudoeste 0 860.7 0.8 93
2020-01-10 20:00:00 -2.4 3 Sudoeste 8 Oeste 0 860.6 0.9 92
2020-01-10 19:00:00 -1.1 5 Oeste 11 Noroeste 0 860.2 0.7 94
2020-01-10 18:00:00 -0.2 3 Oeste 17 Noroeste 0 859.9 1.1 93
2020-01-10 17:00:00 0 12 Oeste 21 Oeste 0 859.7 0.7 94
2020-01-10 16:00:00 0.2 12 Noroeste 34 Noroeste 0 859.5 0.1 92
2020-01-10 15:00:00 0 26 Noroeste 39 Oeste 0 858.8 -0.7 92
2020-01-10 14:00:00 0 20 Noroeste 40 Noroeste 0 859 -0.3 92
2020-01-10 13:00:00 -0.5 18 Noroeste 41 Noroeste 0 859.4 1 93
2020-01-10 12:00:00 -0.5 17 Noroeste 45 Oeste 0 859.5 2 92
2020-01-10 11:00:00 -1 28 Noroeste 66 Oeste 0 859.3 2.4 92
2020-01-10 10:00:00 -1 22 Noroeste 58 Oeste 0 858.4 1.8 93
2020-01-10 09:00:00 -1.2 31 Oeste 79 Oeste 0 857.5 1.5 93
2020-01-10 08:00:00 -1.3 38 Oeste 61 Oeste 0 856.9 1.2 92
2020-01-10 07:00:00 -1.4 44 Oeste 75 Oeste 0 856.6 0.6 92
2020-01-10 06:00:00 -1 41 Oeste 75 Oeste 0.2 856 0.1 88
2020-01-10 05:00:00 -1.2 36 Oeste 66 Oeste 0 855.7 0.4 86
2020-01-10 04:00:00 -1.1 37 Oeste 72 Oeste 0 856 0.5 81
2020-01-10 03:00:00 -1.1 35 Oeste 62 Noroeste 0 855.9 0.5 83
2020-01-10 02:00:00 -0.6 29 Oeste 52 Oeste 0 855.3 -0.1 89
2020-01-10 01:00:00 -0.5 28 Oeste 50 Oeste 0 855.5 0.3 86
2020-01-10 00:00:00 -0.1 32 Oeste 51 Oeste 0 855.4 1 80
2020-01-09 23:00:00 -0.1 23 Oeste 47 Oeste 0 855.4 1.4 80
2020-01-09 22:00:00 0.2 30 Oeste 49 Oeste 0 855.2 1.2 78
2020-01-09 21:00:00 0.8 9 Norte 19 Norte 0 854.4 1.2 82
2020-01-09 20:00:00 0.9 15 Oeste 29 Oeste 0 854 0.8 87
2020-01-09 19:00:00 1.7 19 Oeste 43 Oeste 0.2 854 1.7 89
2020-01-09 18:00:00 2.5 24 Oeste 42 Oeste 1.8 853.2 1.1 92
2020-01-09 17:00:00 3.6 18 Oeste 36 Oeste 0.8 853.2 0.8 92
2020-01-09 16:00:00 7.1 13 Oeste 45 Sudoeste 0 852.3 -1.1 64
2020-01-09 15:00:00 7 21 Sudoeste 51 Sur 0 852.1 -2.2 64
2020-01-09 14:00:00 7.4 30 Sudoeste 62 Sudoeste 0 852.4 -3 64
2020-01-09 13:00:00 7.6 19 Sudoeste 40 Sudoeste 0 853.4 -1.7 67
2020-01-09 12:00:00 6.2 19 Este 33 Nordeste 0 854.3 -1 75
2020-01-09 11:00:00 4.3 12 Este 16 Este 0 855.4 0.3 80
2020-01-09 10:00:00 2 6 Sudeste 11 Este 0 855.1 -0.6 75
2020-01-09 09:00:00 0.6 4 Sudeste 14 Sur 0 855.3 -0.4 74
2020-01-09 08:00:00 0.9 7 Este 10 Este 0 855.1 -1.1 70
2020-01-09 07:00:00 1 4 Sudeste 10 Sudeste 0 855.7 -0.9 70
2020-01-09 06:00:00 2 4 Sudeste 17 Sudeste 0 855.7 -1.3 64
2020-01-09 05:00:00 0.4 3 Oeste 8 Oeste 0 856.2 -1 72
2020-01-09 04:00:00 1.4 5 Este 8 Sur 0 856.6 -0.9 64
2020-01-09 03:00:00 1.6 2 Oeste 8 Norte 0 857 -1.1 62
2020-01-09 02:00:00 3 4 Noroeste 15 Nordeste 0 857.2 -1.4 58
2020-01-09 01:00:00 1.4 3 Sudeste 6 Sur 0 857.5 -1.3 67
2020-01-09 00:00:00 2.3 3 Noroeste 11 Este 0 858.1 -0.7 65
2020-01-08 23:00:00 0.8 3 Sudoeste 5 Oeste 0 858.6 -0.3 73
2020-01-08 22:00:00 1.4 0 Calma 7 Oeste 0 858.8 -0.2 68
2020-01-08 21:00:00 1.2 0 Calma 4 Oeste 0 858.8 -0.4 70
2020-01-08 20:00:00 2.4 0 Calma 5 Noroeste 0 858.9 -0.2 65
2020-01-08 19:00:00 3.4 2 Oeste 6 Noroeste 0 859 0 60
2020-01-08 18:00:00 4.6 3 Oeste 7 Sudeste 0 859.2 0 60
2020-01-08 17:00:00 7.9 3 Sudeste 13 Este 0 859.1 -0.4 52
2020-01-08 16:00:00 10.3 8 Este 17 Este 0 859 -1.3 37
2020-01-08 15:00:00 11.2 12 Este 18 Este 0 859.2 -1.9 39
2020-01-08 14:00:00 10.8 13 Este 18 Este 0 859.5 -1.7 37
2020-01-08 13:00:00 10.6 9 Este 13 Este 0 860.3 -0.6 39
2020-01-08 12:00:00 9.3 9 Este 12 Sudeste 0 861.1 0.4 43
2020-01-08 11:00:00 8.2 5 Este 7 Sudeste 0 861.2 0.6 46
2020-01-08 10:00:00 4.4 2 Este 6 Noroeste 0 860.9 0.5 53
2020-01-08 09:00:00 2.3 4 Oeste 15 Oeste 0 860.7 0.1 56
2020-01-08 08:00:00 5.1 14 Oeste 18 Oeste 0 860.6 -0.2 49
2020-01-08 07:00:00 3.4 5 Oeste 9 Oeste 0 860.4 -0.7 67
2020-01-08 06:00:00 4.4 4 Oeste 13 Noroeste 0 860.6 -0.4 48
2020-01-08 05:00:00 3.6 8 Oeste 12 Oeste 0 860.8 -0.4 49
2020-01-08 04:00:00 3.9 5 Oeste 8 Noroeste 0 861.1 -0.3 43
2020-01-08 03:00:00 3.8 6 Noroeste 11 Noroeste 0 861 -0.7 57
2020-01-08 02:00:00 3.8 4 Oeste 8 Noroeste 0 861.2 -0.6 57
2020-01-08 01:00:00 3.1 6 Oeste 8 Noroeste 0 861.4 -0.5 59
2020-01-08 00:00:00 3.7 5 Oeste 9 Oeste 0 861.7 -0.2 36
2020-01-07 23:00:00 3.2 4 Oeste 8 Oeste 0 861.8 0 38
2020-01-07 22:00:00 3.7 5 Oeste 10 Noroeste 0 861.9 0.4 37
2020-01-07 21:00:00 3.8 7 Noroeste 12 Noroeste 0 861.9 0.6 37
2020-01-07 20:00:00 3.8 4 Oeste 10 Noroeste 0 861.8 0.6 38
2020-01-07 19:00:00 4.3 5 Oeste 9 Noroeste 0 861.5 0.5 34
2020-01-07 18:00:00 5 7 Noroeste 14 Oeste 0 861.3 0.1 35
2020-01-07 17:00:00 8.6 13 Oeste 19 Oeste 0 861.2 -0.3 18
2020-01-07 16:00:00 9.2 14 Oeste 19 Oeste 0 861 -1.1 13
2020-01-07 15:00:00 10.4 12 Oeste 18 Oeste 0 861.2 -1.3 15
2020-01-07 14:00:00 10.1 10 Oeste 14 Oeste 0 861.5 -1.2 23
2020-01-07 13:00:00 9.6 11 Oeste 13 Oeste 0 862.1 0 21
2020-01-07 12:00:00 8.5 4 Oeste 10 Oeste 0 862.5 1 26
2020-01-07 11:00:00 5.1 0 Calma 6 Sudeste 0 862.7 1.3 38
2020-01-07 10:00:00 0.9 3 Sudeste 6 Sur 0 862.1 0.8 43
2020-01-07 09:00:00 -1.4 0 Calma 5 Sur 0 861.5 0.1 55
2020-01-07 08:00:00 -1.3 0 Calma 5 Este 0 861.4 0 53
2020-01-07 07:00:00 -1.1 2 Sudeste 7 Sur 0 861.3 -0.1 52
2020-01-07 06:00:00 -1.3 2 Sur 5 Este 0 861.4 0.2 52
2020-01-07 05:00:00 -0.9 0 Calma 6 Sur 0 861.4 0.4 49
2020-01-07 04:00:00 -1 3 Sudeste 7 Sudeste 0 861.4 0.3 46
2020-01-07 03:00:00 -1.1 3 Sudeste 10 Sudoeste 0 861.2 0.1 50
2020-01-07 02:00:00 1.9 5 Sudeste 10 Sudoeste 0 861 -0.1 33
2020-01-07 01:00:00 -0.7 5 Oeste 9 Noroeste 0 861.1 0.3 47
2020-01-07 00:00:00 0.1 5 Oeste 9 Oeste 0 861.1 0.8 42
2020-01-06 23:00:00 0 5 Oeste 10 Oeste 0 861.1 1 45
2020-01-06 22:00:00 2.5 4 Oeste 15 Oeste 0 860.8 0.8 32
2020-01-06 21:00:00 2.6 8 Oeste 17 Oeste 0 860.3 1 38
2020-01-06 20:00:00 2.9 15 Oeste 21 Oeste 0 860.1 0.7 38
2020-01-06 19:00:00 2.5 12 Oeste 16 Oeste 0 860 2 39
2020-01-06 18:00:00 4.5 12 Noroeste 23 Oeste 0 859.3 1.7 42
2020-01-06 17:00:00 5.7 15 Oeste 31 Noroeste 0 859.4 1.6 49
2020-01-06 16:00:00 8.9 5 Este 9 Sur 0 858 -0.4 38
2020-01-06 15:00:00 9.7 3 Oeste 14 Noroeste 0 857.6 -1.4 38
2020-01-06 14:00:00 11.4 3 Sur 11 Sur 0 857.8 -1 31
2020-01-06 13:00:00 12.3 3 Sudeste 9 Sudeste 0 858.4 -0.3 29
2020-01-06 12:00:00 9.3 6 Sudeste 9 Sur 0 859 0.9 34
2020-01-06 11:00:00 7.1 5 Sudeste 10 Sudeste 0 858.8 1.2 38
2020-01-06 10:00:00 2.5 3 Este 9 Oeste 0 858.7 1.2 52